CSCL Long Beach — VRCZ7 — position and weather

sailwx.info

Track history (hours):
 
Tides and Currents Weather Stations Pressure Air Temp Water Temp Dewpoint Dewpoint Depression Visibility Wind Speed Wind Dir Waves Ship Positions

CSCL Long Beach

Last reported at 2014-Jul-24 02:34 UTC. Time now 2014-Jul-24 17:41 UTC.
Position N 36°14' W 007°46'.

Length 336.7 m; beam 45.6 m; draft 15 m.

Type: Cargo ship. MMSI: 477883900.

Date/timePositionNaut miles runAvg speedWind from/ knotsBaromVisibWave heightAir tempDewpointWater temp
2014-Jul-24 02:34N 36°14' W 007°46'1616.0
2014-Jul-24 01:32N 36°18' W 008°06'1616.0
2014-Jul-24 00:34N 36°22' W 008°25'1615.8
2014-Jul-23 23:33N 36°26' W 008°44'1615.6
2014-Jul-23 22:34N 36°30' W 009°02'1615.6
2014-Jul-23 21:34N 36°36' W 009°20'1615.8
2014-Jul-23 20:33N 36°48' W 009°33'1716.5
2014-Jul-23 19:33N 37°04' W 009°39'1716.8
2014-Jul-23 18:33N 37°20' W 009°43'1716.7
2014-Jul-23 17:33N 37°36' W 009°48'1616.2
2014-Jul-23 16:33N 37°52' W 009°53'1716.6
2014-Jul-23 15:33N 38°09' W 009°57'1616.4
2014-Jul-23 14:33N 38°25' W 010°01'1616.3
2014-Jul-23 13:33N 38°41' W 010°05'1616.5
2014-Jul-23 12:33N 38°57' W 010°07'1716.5
2014-Jul-23 11:32N 39°14' W 010°07'2016.5
2014-Jul-23 10:19N 39°34' W 010°07'77314.9
2014-Jul-21 06:31N 50°26' W 000°20'1715.7
2014-Jul-21 05:27N 50°30' E 000°05'1315.0
2014-Jul-21 04:33N 50°34' E 000°25'1514.8
2014-Jul-21 03:33N 50°41' E 000°46'1615.8
2014-Jul-21 02:33N 50°50' E 001°07'1717.0
2014-Jul-21 01:34N 51°01' E 001°27'1717.1
2014-Jul-21 00:33N 51°13' E 001°46'1515.1
2014-Jul-20 23:33N 51°25' E 002°02'1514.7
2014-Jul-20 22:31N 51°22' E 002°26'1313.3
2014-Jul-20 21:33N 51°25' E 002°46'1515.2
2014-Jul-20 20:33N 51°23' E 003°10'2 1.7
2014-Jul-20 19:30N 51°21' E 003°11'0 0.0
2014-Jul-20 18:30N 51°21' E 003°11'0 0.0
2014-Jul-20 17:30N 51°21' E 003°11'0 0.0
2014-Jul-20 16:30N 51°21' E 003°11'0 0.0
2014-Jul-20 15:30N 51°21' E 003°11'0 0.0
2014-Jul-20 14:30N 51°21' E 003°11'0 0.0
2014-Jul-20 13:24N 51°21' E 003°11'0 0.0
2014-Jul-20 12:33N 51°21' E 003°11'0 0.0
2014-Jul-20 11:24N 51°21' E 003°11'0 0.0
2014-Jul-20 10:30N 51°21' E 003°11'0 0.0
2014-Jul-20 09:33N 51°21' E 003°11'0 0.0
2014-Jul-20 08:33N 51°21' E 003°11'0 0.0
2014-Jul-20 07:30N 51°21' E 003°11'0 0.0
2014-Jul-20 06:33N 51°21' E 003°11'0 0.0
2014-Jul-20 05:33N 51°21' E 003°11'0 0.0
2014-Jul-20 04:33N 51°21' E 003°11'0 0.0
2014-Jul-20 03:33N 51°21' E 003°11'0 0.0
2014-Jul-20 02:33N 51°21' E 003°11'0 0.0
2014-Jul-20 01:33N 51°21' E 003°11'0 0.0
2014-Jul-20 00:33N 51°21' E 003°11'0 0.0
2014-Jul-19 23:33N 51°21' E 003°11'0 0.0
2014-Jul-19 22:33N 51°21' E 003°11'0 0.0
2014-Jul-19 21:30N 51°21' E 003°11'0 0.0
2014-Jul-19 20:33N 51°21' E 003°11'0 0.0
2014-Jul-19 19:33N 51°21' E 003°11'0 0.0
2014-Jul-19 18:33N 51°21' E 003°11'0 0.0
2014-Jul-19 17:33N 51°21' E 003°11'0 0.0
2014-Jul-19 16:33N 51°21' E 003°11'0 0.0
2014-Jul-19 15:33N 51°21' E 003°11'0 0.0
2014-Jul-19 14:33N 51°21' E 003°11'0 0.0
2014-Jul-19 13:30N 51°21' E 003°11'0 0.0
2014-Jul-19 12:33N 51°21' E 003°11'1 1.2
2014-Jul-19 11:34N 51°22' E 003°11'1413.5
2014-Jul-19 10:34N 51°25' E 002°50'10 9.7
2014-Jul-19 09:34N 51°24' E 002°35'1 0.7
2014-Jul-19 08:31N 51°24' E 002°35'0 0.1
2014-Jul-19 07:25N 51°24' E 002°35'0 0.0
2014-Jul-19 06:22N 51°24' E 002°35'0 0.1
2014-Jul-19 05:31N 51°24' E 002°35'0 0.0
2014-Jul-19 04:31N 51°24' E 002°35'0 0.3
2014-Jul-19 03:28N 51°24' E 002°35'0 0.2
2014-Jul-19 02:31N 51°24' E 002°35'0 0.0
2014-Jul-19 01:31N 51°24' E 002°35'0 0.0
2014-Jul-19 00:31N 51°24' E 002°35'0 0.0
2014-Jul-18 23:31N 51°24' E 002°35'0 0.4
2014-Jul-18 22:28N 51°24' E 002°35'0 0.2
2014-Jul-18 21:28N 51°24' E 002°35'4 4.5
2014-Jul-18 20:33N 51°22' E 002°29'1414.0
2014-Jul-18 19:33N 51°19' E 002°07'1010.4
2014-Jul-18 18:33N 51°29' E 002°04'1313.3
2014-Jul-18 17:33N 51°39' E 002°18'4714.0
2014-Jul-18 14:13N 52°03' E 003°23'1116.2
2014-Jul-18 13:33N 52°05' E 003°41'2 1.6
2014-Jul-18 12:33N 52°06' E 003°42'0 0.3
2014-Jul-18 11:33N 52°07' E 003°42'0 0.4
2014-Jul-18 10:33N 52°06' E 003°41'5 4.7
2014-Jul-18 09:34N 52°05' E 003°49'1212.0
2014-Jul-18 08:33N 51°59' E 004°05'3 3.4
2014-Jul-18 07:31N 51°58' E 003°59'0 0.0
2014-Jul-18 06:32N 51°58' E 003°59'0 0.0
2014-Jul-18 05:32N 51°58' E 003°59'0 0.0
2014-Jul-18 04:32N 51°58' E 003°59'0 0.0
2014-Jul-18 03:32N 51°58' E 003°59'0 0.0
2014-Jul-18 02:32N 51°58' E 003°59'0 0.0
2014-Jul-18 01:32N 51°58' E 003°59'0 0.0
2014-Jul-18 00:32N 51°58' E 003°59'0 0.0
2014-Jul-17 23:32N 51°58' E 003°59'0 0.0
2014-Jul-17 22:31N 51°58' E 003°59'0 0.0
2014-Jul-17 21:32N 51°58' E 003°59'0 0.0
2014-Jul-17 20:32N 51°58' E 003°59'0 0.0
2014-Jul-17 19:32N 51°58' E 003°59'0 0.0
2014-Jul-17 18:32N 51°58' E 003°59'0 0.0
2014-Jul-17 17:32N 51°58' E 003°59'0 0.0
2014-Jul-17 16:32N 51°58' E 003°59'0 0.0
2014-Jul-17 15:32N 51°58' E 003°59'0 0.0
2014-Jul-17 14:32N 51°58' E 003°59'0 0.0
2014-Jul-17 13:32N 51°58' E 003°59'0 0.0
2014-Jul-17 12:32N 51°58' E 003°59'0 0.0
2014-Jul-17 11:32N 51°58' E 003°59'0 0.0
2014-Jul-17 10:32N 51°58' E 003°59'0 0.0
2014-Jul-17 09:32N 51°58' E 003°59'0 0.0
2014-Jul-17 08:31N 51°58' E 003°59'0 0.0
2014-Jul-17 07:32N 51°58' E 003°59'0 0.0
2014-Jul-17 06:32N 51°58' E 003°59'0 0.0
2014-Jul-17 05:32N 51°58' E 003°59'0 0.0
2014-Jul-17 04:32N 51°58' E 003°59'0 0.0
2014-Jul-17 03:32N 51°58' E 003°59'0 0.0
2014-Jul-17 02:32N 51°58' E 003°59'0 0.0
2014-Jul-17 01:32N 51°58' E 003°59'0 0.0
2014-Jul-17 00:32N 51°58' E 003°59'0 0.0
2014-Jul-16 23:32N 51°58' E 003°59'0 0.0
2014-Jul-16 22:32N 51°58' E 003°59'0 0.0
2014-Jul-16 21:32N 51°58' E 003°59'0 0.0
2014-Jul-16 20:29N 51°58' E 003°59'0 0.0
2014-Jul-16 19:32N 51°58' E 003°59'0 0.0
2014-Jul-16 18:32N 51°58' E 003°59'0 0.0
2014-Jul-16 17:31N 51°58' E 003°59'0 0.0
2014-Jul-16 16:32N 51°58' E 003°59'0 0.0
2014-Jul-16 15:32N 51°58' E 003°59'0 0.0
2014-Jul-16 14:32N 51°58' E 003°59'0 0.0
2014-Jul-16 13:32N 51°58' E 003°59'0 0.0
2014-Jul-16 12:32N 51°58' E 003°59'0 0.0
2014-Jul-16 11:31N 51°58' E 003°59'2 1.7
2014-Jul-16 10:33N 51°58' E 004°02'0 0.1
2014-Jul-16 09:33N 51°58' E 004°02'0 0.0
2014-Jul-16 08:33N 51°58' E 004°02'0 0.0
2014-Jul-16 07:33N 51°58' E 004°02'0 0.0
2014-Jul-16 06:30N 51°58' E 004°02'0 0.0
2014-Jul-16 05:33N 51°58' E 004°02'0 0.0
2014-Jul-16 04:33N 51°58' E 004°02'0 0.0
2014-Jul-16 03:33N 51°58' E 004°02'0 0.0
2014-Jul-16 02:33N 51°58' E 004°02'0 0.0
2014-Jul-16 01:33N 51°58' E 004°02'0 0.0
2014-Jul-16 00:33N 51°58' E 004°02'0 0.0
2014-Jul-15 23:33N 51°58' E 004°02'0 0.0
2014-Jul-15 22:33N 51°58' E 004°02'0 0.0
2014-Jul-15 21:33N 51°58' E 004°02'0 0.0
2014-Jul-15 20:33N 51°58' E 004°02'0 0.0
2014-Jul-15 19:33N 51°58' E 004°02'0 0.0
2014-Jul-15 18:33N 51°58' E 004°02'0 0.0
2014-Jul-15 17:33N 51°58' E 004°02'0 0.0
2014-Jul-15 16:33N 51°58' E 004°02'0 0.0
2014-Jul-15 15:24N 51°58' E 004°02'0 0.0
2014-Jul-15 14:33N 51°58' E 004°02'0 0.0
2014-Jul-15 13:33N 51°58' E 004°02'0 0.0
2014-Jul-15 12:33N 51°58' E 004°02'0 0.0
2014-Jul-15 11:30N 51°58' E 004°02'0 0.0
2014-Jul-15 10:33N 51°58' E 004°02'0 0.0
2014-Jul-15 09:33N 51°58' E 004°02'0 0.0
2014-Jul-15 08:30N 51°58' E 004°02'0 0.0
2014-Jul-15 07:33N 51°58' E 004°02'0 0.0
2014-Jul-15 06:33N 51°58' E 004°02'0 0.0
2014-Jul-15 05:33N 51°58' E 004°02'0 0.0
2014-Jul-15 04:33N 51°58' E 004°02'0 0.0
2014-Jul-15 03:33N 51°58' E 004°02'2 1.8
2014-Jul-15 02:33N 51°60' E 004°00'1212.2
2014-Jul-15 01:33N 52°04' E 003°42'7 7.3
2014-Jul-15 00:33N 52°10' E 003°35'0 0.3
2014-Jul-14 23:33N 52°10' E 003°34'0 0.1
2014-Jul-14 22:33N 52°10' E 003°34'0 0.3
2014-Jul-14 21:33N 52°09' E 003°34'7 6.9
2014-Jul-14 20:33N 52°11' E 003°23'1616.0
2014-Jul-14 19:33N 52°26' E 003°27'1917.7
2014-Jul-14 18:29N 52°44' E 003°38'1818.9
2014-Jul-14 17:33N 52°58' E 003°57'1918.7
2014-Jul-14 16:32N 53°10' E 004°22'1919.6
2014-Jul-14 15:33N 53°27' E 004°36'2221.7
2014-Jul-14 14:33N 53°36' E 005°08'2222.1
2014-Jul-14 13:33N 53°43' E 005°44'2221.5
2014-Jul-14 12:32N 53°50' E 006°19'2120.7
2014-Jul-14 11:31N 53°55' E 006°54'2220.1
2014-Jul-14 10:26N 53°59' E 007°30'1718.8
2014-Jul-14 09:33N 54°01' E 007°58'1414.1
2014-Jul-14 08:34N 53°59' E 008°22'1414.2
2014-Jul-14 07:33N 53°52' E 008°43'1515.0
2014-Jul-14 06:34N 53°53' E 009°09'1312.5
2014-Jul-14 05:33N 53°45' E 009°25'1212.1
2014-Jul-14 04:34N 53°35' E 009°37'9 9.1
2014-Jul-14 03:33N 53°33' E 009°52'  
Track history (hours):
 
Tides and Currents Weather Stations Pressure Air Temp Water Temp Dewpoint Dewpoint Depression Visibility Wind Speed Wind Dir Waves Ship Positions

CSCL Long Beach

Last reported at 2014-Jul-24 02:34 UTC. Time now 2014-Jul-24 17:41 UTC.
Position N 36°14' W 007°46'.

Length 336.7 m; beam 45.6 m; draft 15 m.

Type: Cargo ship. MMSI: 477883900.

Date/timePositionNaut miles runAvg speedWind from/ knotsBaromVisibWave heightAir tempDewpointWater temp
2014-Jul-24 02:34N 36°14' W 007°46'1616.0
2014-Jul-24 01:32N 36°18' W 008°06'1616.0
2014-Jul-24 00:34N 36°22' W 008°25'1615.8
2014-Jul-23 23:33N 36°26' W 008°44'1615.6
2014-Jul-23 22:34N 36°30' W 009°02'1615.6
2014-Jul-23 21:34N 36°36' W 009°20'1615.8
2014-Jul-23 20:33N 36°48' W 009°33'1716.5
2014-Jul-23 19:33N 37°04' W 009°39'1716.8
2014-Jul-23 18:33N 37°20' W 009°43'1716.7
2014-Jul-23 17:33N 37°36' W 009°48'1616.2
2014-Jul-23 16:33N 37°52' W 009°53'1716.6
2014-Jul-23 15:33N 38°09' W 009°57'1616.4
2014-Jul-23 14:33N 38°25' W 010°01'1616.3
2014-Jul-23 13:33N 38°41' W 010°05'1616.5
2014-Jul-23 12:33N 38°57' W 010°07'1716.5
2014-Jul-23 11:32N 39°14' W 010°07'2016.5
2014-Jul-23 10:19N 39°34' W 010°07'77314.9
2014-Jul-21 06:31N 50°26' W 000°20'1715.7
2014-Jul-21 05:27N 50°30' E 000°05'1315.0
2014-Jul-21 04:33N 50°34' E 000°25'1514.8
2014-Jul-21 03:33N 50°41' E 000°46'1615.8
2014-Jul-21 02:33N 50°50' E 001°07'1717.0
2014-Jul-21 01:34N 51°01' E 001°27'1717.1
2014-Jul-21 00:33N 51°13' E 001°46'1515.1
2014-Jul-20 23:33N 51°25' E 002°02'1514.7
2014-Jul-20 22:31N 51°22' E 002°26'1313.3
2014-Jul-20 21:33N 51°25' E 002°46'1515.2
2014-Jul-20 20:33N 51°23' E 003°10'2 1.7
2014-Jul-20 19:30N 51°21' E 003°11'0 0.0
2014-Jul-20 18:30N 51°21' E 003°11'0 0.0
2014-Jul-20 17:30N 51°21' E 003°11'0 0.0
2014-Jul-20 16:30N 51°21' E 003°11'0 0.0
2014-Jul-20 15:30N 51°21' E 003°11'0 0.0
2014-Jul-20 14:30N 51°21' E 003°11'0 0.0
2014-Jul-20 13:24N 51°21' E 003°11'0 0.0
2014-Jul-20 12:33N 51°21' E 003°11'0 0.0
2014-Jul-20 11:24N 51°21' E 003°11'0 0.0
2014-Jul-20 10:30N 51°21' E 003°11'0 0.0
2014-Jul-20 09:33N 51°21' E 003°11'0 0.0
2014-Jul-20 08:33N 51°21' E 003°11'0 0.0
2014-Jul-20 07:30N 51°21' E 003°11'0 0.0
2014-Jul-20 06:33N 51°21' E 003°11'0 0.0
2014-Jul-20 05:33N 51°21' E 003°11'0 0.0
2014-Jul-20 04:33N 51°21' E 003°11'0 0.0
2014-Jul-20 03:33N 51°21' E 003°11'0 0.0
2014-Jul-20 02:33N 51°21' E 003°11'0 0.0
2014-Jul-20 01:33N 51°21' E 003°11'0 0.0
2014-Jul-20 00:33N 51°21' E 003°11'0 0.0
2014-Jul-19 23:33N 51°21' E 003°11'0 0.0
2014-Jul-19 22:33N 51°21' E 003°11'0 0.0
2014-Jul-19 21:30N 51°21' E 003°11'0 0.0
2014-Jul-19 20:33N 51°21' E 003°11'0 0.0
2014-Jul-19 19:33N 51°21' E 003°11'0 0.0
2014-Jul-19 18:33N 51°21' E 003°11'0 0.0
2014-Jul-19 17:33N 51°21' E 003°11'0 0.0
2014-Jul-19 16:33N 51°21' E 003°11'0 0.0
2014-Jul-19 15:33N 51°21' E 003°11'0 0.0
2014-Jul-19 14:33N 51°21' E 003°11'0 0.0
2014-Jul-19 13:30N 51°21' E 003°11'0 0.0
2014-Jul-19 12:33N 51°21' E 003°11'1 1.2
2014-Jul-19 11:34N 51°22' E 003°11'1413.5
2014-Jul-19 10:34N 51°25' E 002°50'10 9.7
2014-Jul-19 09:34N 51°24' E 002°35'1 0.7
2014-Jul-19 08:31N 51°24' E 002°35'0 0.1
2014-Jul-19 07:25N 51°24' E 002°35'0 0.0
2014-Jul-19 06:22N 51°24' E 002°35'0 0.1
2014-Jul-19 05:31N 51°24' E 002°35'0 0.0
2014-Jul-19 04:31N 51°24' E 002°35'0 0.3
2014-Jul-19 03:28N 51°24' E 002°35'0 0.2
2014-Jul-19 02:31N 51°24' E 002°35'0 0.0
2014-Jul-19 01:31N 51°24' E 002°35'0 0.0
2014-Jul-19 00:31N 51°24' E 002°35'0 0.0
2014-Jul-18 23:31N 51°24' E 002°35'0 0.4
2014-Jul-18 22:28N 51°24' E 002°35'0 0.2
2014-Jul-18 21:28N 51°24' E 002°35'4 4.5
2014-Jul-18 20:33N 51°22' E 002°29'1414.0
2014-Jul-18 19:33N 51°19' E 002°07'1010.4
2014-Jul-18 18:33N 51°29' E 002°04'1313.3
2014-Jul-18 17:33N 51°39' E 002°18'4714.0
2014-Jul-18 14:13N 52°03' E 003°23'1116.2
2014-Jul-18 13:33N 52°05' E 003°41'2 1.6
2014-Jul-18 12:33N 52°06' E 003°42'0 0.3
2014-Jul-18 11:33N 52°07' E 003°42'0 0.4
2014-Jul-18 10:33N 52°06' E 003°41'5 4.7
2014-Jul-18 09:34N 52°05' E 003°49'1212.0
2014-Jul-18 08:33N 51°59' E 004°05'3 3.4
2014-Jul-18 07:31N 51°58' E 003°59'0 0.0
2014-Jul-18 06:32N 51°58' E 003°59'0 0.0
2014-Jul-18 05:32N 51°58' E 003°59'0 0.0
2014-Jul-18 04:32N 51°58' E 003°59'0 0.0
2014-Jul-18 03:32N 51°58' E 003°59'0 0.0
2014-Jul-18 02:32N 51°58' E 003°59'0 0.0
2014-Jul-18 01:32N 51°58' E 003°59'0 0.0
2014-Jul-18 00:32N 51°58' E 003°59'0 0.0
2014-Jul-17 23:32N 51°58' E 003°59'0 0.0
2014-Jul-17 22:31N 51°58' E 003°59'0 0.0
2014-Jul-17 21:32N 51°58' E 003°59'0 0.0
2014-Jul-17 20:32N 51°58' E 003°59'0 0.0
2014-Jul-17 19:32N 51°58' E 003°59'0 0.0
2014-Jul-17 18:32N 51°58' E 003°59'0 0.0
2014-Jul-17 17:32N 51°58' E 003°59'0 0.0
2014-Jul-17 16:32N 51°58' E 003°59'0 0.0
2014-Jul-17 15:32N 51°58' E 003°59'0 0.0
2014-Jul-17 14:32N 51°58' E 003°59'0 0.0
2014-Jul-17 13:32N 51°58' E 003°59'0 0.0
2014-Jul-17 12:32N 51°58' E 003°59'0 0.0
2014-Jul-17 11:32N 51°58' E 003°59'0 0.0
2014-Jul-17 10:32N 51°58' E 003°59'0 0.0
2014-Jul-17 09:32N 51°58' E 003°59'0 0.0
2014-Jul-17 08:31N 51°58' E 003°59'0 0.0
2014-Jul-17 07:32N 51°58' E 003°59'0 0.0
2014-Jul-17 06:32N 51°58' E 003°59'0 0.0
2014-Jul-17 05:32N 51°58' E 003°59'0 0.0
2014-Jul-17 04:32N 51°58' E 003°59'0 0.0
2014-Jul-17 03:32N 51°58' E 003°59'0 0.0
2014-Jul-17 02:32N 51°58' E 003°59'0 0.0
2014-Jul-17 01:32N 51°58' E 003°59'0 0.0
2014-Jul-17 00:32N 51°58' E 003°59'0 0.0
2014-Jul-16 23:32N 51°58' E 003°59'0 0.0
2014-Jul-16 22:32N 51°58' E 003°59'0 0.0
2014-Jul-16 21:32N 51°58' E 003°59'0 0.0
2014-Jul-16 20:29N 51°58' E 003°59'0 0.0
2014-Jul-16 19:32N 51°58' E 003°59'0 0.0
2014-Jul-16 18:32N 51°58' E 003°59'0 0.0
2014-Jul-16 17:31N 51°58' E 003°59'0 0.0
2014-Jul-16 16:32N 51°58' E 003°59'0 0.0
2014-Jul-16 15:32N 51°58' E 003°59'0 0.0
2014-Jul-16 14:32N 51°58' E 003°59'0 0.0
2014-Jul-16 13:32N 51°58' E 003°59'0 0.0
2014-Jul-16 12:32N 51°58' E 003°59'0 0.0
2014-Jul-16 11:31N 51°58' E 003°59'2 1.7
2014-Jul-16 10:33N 51°58' E 004°02'0 0.1
2014-Jul-16 09:33N 51°58' E 004°02'0 0.0
2014-Jul-16 08:33N 51°58' E 004°02'0 0.0
2014-Jul-16 07:33N 51°58' E 004°02'0 0.0
2014-Jul-16 06:30N 51°58' E 004°02'0 0.0
2014-Jul-16 05:33N 51°58' E 004°02'0 0.0
2014-Jul-16 04:33N 51°58' E 004°02'0 0.0
2014-Jul-16 03:33N 51°58' E 004°02'0 0.0
2014-Jul-16 02:33N 51°58' E 004°02'0 0.0
2014-Jul-16 01:33N 51°58' E 004°02'0 0.0
2014-Jul-16 00:33N 51°58' E 004°02'0 0.0
2014-Jul-15 23:33N 51°58' E 004°02'0 0.0
2014-Jul-15 22:33N 51°58' E 004°02'0 0.0
2014-Jul-15 21:33N 51°58' E 004°02'0 0.0
2014-Jul-15 20:33N 51°58' E 004°02'0 0.0
2014-Jul-15 19:33N 51°58' E 004°02'0 0.0
2014-Jul-15 18:33N 51°58' E 004°02'0 0.0
2014-Jul-15 17:33N 51°58' E 004°02'0 0.0
2014-Jul-15 16:33N 51°58' E 004°02'0 0.0
2014-Jul-15 15:24N 51°58' E 004°02'0 0.0
2014-Jul-15 14:33N 51°58' E 004°02'0 0.0
2014-Jul-15 13:33N 51°58' E 004°02'0 0.0
2014-Jul-15 12:33N 51°58' E 004°02'0 0.0
2014-Jul-15 11:30N 51°58' E 004°02'0 0.0
2014-Jul-15 10:33N 51°58' E 004°02'0 0.0
2014-Jul-15 09:33N 51°58' E 004°02'0 0.0
2014-Jul-15 08:30N 51°58' E 004°02'0 0.0
2014-Jul-15 07:33N 51°58' E 004°02'0 0.0
2014-Jul-15 06:33N 51°58' E 004°02'0 0.0
2014-Jul-15 05:33N 51°58' E 004°02'0 0.0
2014-Jul-15 04:33N 51°58' E 004°02'0 0.0
2014-Jul-15 03:33N 51°58' E 004°02'2 1.8
2014-Jul-15 02:33N 51°60' E 004°00'1212.2
2014-Jul-15 01:33N 52°04' E 003°42'7 7.3
2014-Jul-15 00:33N 52°10' E 003°35'0 0.3
2014-Jul-14 23:33N 52°10' E 003°34'0 0.1
2014-Jul-14 22:33N 52°10' E 003°34'0 0.3
2014-Jul-14 21:33N 52°09' E 003°34'7 6.9
2014-Jul-14 20:33N 52°11' E 003°23'1616.0
2014-Jul-14 19:33N 52°26' E 003°27'1917.7
2014-Jul-14 18:29N 52°44' E 003°38'1818.9
2014-Jul-14 17:33N 52°58' E 003°57'1918.7
2014-Jul-14 16:32N 53°10' E 004°22'1919.6
2014-Jul-14 15:33N 53°27' E 004°36'2221.7
2014-Jul-14 14:33N 53°36' E 005°08'2222.1
2014-Jul-14 13:33N 53°43' E 005°44'2221.5
2014-Jul-14 12:32N 53°50' E 006°19'2120.7
2014-Jul-14 11:31N 53°55' E 006°54'2220.1
2014-Jul-14 10:26N 53°59' E 007°30'1718.8
2014-Jul-14 09:33N 54°01' E 007°58'1414.1
2014-Jul-14 08:34N 53°59' E 008°22'1414.2
2014-Jul-14 07:33N 53°52' E 008°43'1515.0
2014-Jul-14 06:34N 53°53' E 009°09'1312.5
2014-Jul-14 05:33N 53°45' E 009°25'1212.1
2014-Jul-14 04:34N 53°35' E 009°37'9 9.1
2014-Jul-14 03:33N 53°33' E 009°52'  

Dump ship's entire track history